EJU386B LFKB-LFLL
Flight info
| Callsign | EJU386B |
|---|---|
| Flight time | 0h 53m |
| Altitude | 24000 |
| Route | NORKA A3 SODRI G374 PERUS A3 RETNO Z42 PINED |
| Aircraft | A319/M-SDE3FGHIRWY/LB1 |
Departure
| Time | 2026-04-24 16:00 |
|---|---|
| Airport | Bastia-Poretta International airport (LFKB) |
Arrival
| Time | 2026-04-24 16:54 |
|---|---|
| Airport | Lyon Saint-Exupéry Airport (LFLL) |
| Time | Latitude | Longitude | Altitude | Speed | Heading |
|---|---|---|---|---|---|
| 2026-04-24 15:46 | 42.54880 | 9.48135 | 35 ft | 0 kts | 252° |
| 2026-04-24 15:53 | 42.54885 | 9.48159 | 35 ft | 4 kts | 253° |
| 2026-04-24 15:53 | 42.54893 | 9.48193 | 35 ft | 4 kts | 248° |
| 2026-04-24 15:53 | 42.54905 | 9.48225 | 34 ft | 4 kts | 224° |
| 2026-04-24 15:53 | 42.54925 | 9.48239 | 35 ft | 3 kts | 167° |
| 2026-04-24 15:54 | 42.54928 | 9.48238 | 35 ft | 0 kts | 163° |
| 2026-04-24 15:56 | 42.54922 | 9.48240 | 35 ft | 3 kts | 163° |
| 2026-04-24 15:56 | 42.54883 | 9.48256 | 35 ft | 9 kts | 163° |
| 2026-04-24 15:57 | 42.54809 | 9.48286 | 34 ft | 13 kts | 163° |
| 2026-04-24 15:57 | 42.54707 | 9.48328 | 33 ft | 17 kts | 163° |
| 2026-04-24 15:57 | 42.54581 | 9.48381 | 35 ft | 21 kts | 163° |
| 2026-04-24 15:57 | 42.54462 | 9.48420 | 35 ft | 13 kts | 182° |
| 2026-04-24 15:58 | 42.54361 | 9.48430 | 35 ft | 16 kts | 162° |
| 2026-04-24 15:58 | 42.54243 | 9.48481 | 35 ft | 19 kts | 162° |
| 2026-04-24 15:58 | 42.54144 | 9.48577 | 35 ft | 18 kts | 115° |
| 2026-04-24 15:58 | 42.54138 | 9.48717 | 35 ft | 11 kts | 64° |
| 2026-04-24 15:59 | 42.54185 | 9.48788 | 35 ft | 9 kts | 46° |
| 2026-04-24 15:59 | 42.54234 | 9.48807 | 34 ft | 6 kts | 339° |
| 2026-04-24 15:59 | 42.54240 | 9.48804 | 35 ft | 0 kts | 339° |
| 2026-04-24 16:00 | 42.54254 | 9.48797 | 35 ft | 8 kts | 341° |
| 2026-04-24 16:00 | 42.54581 | 9.48660 | 32 ft | 92 kts | 343° |
| 2026-04-24 16:00 | 42.55421 | 9.48310 | 97 ft | 152 kts | 343° |
| 2026-04-24 16:00 | 42.56472 | 9.47904 | 690 ft | 157 kts | 345° |
| 2026-04-24 16:01 | 42.57578 | 9.47809 | 1413 ft | 162 kts | 6° |
| 2026-04-24 16:01 | 42.58723 | 9.47893 | 2078 ft | 172 kts | 0° |
| 2026-04-24 16:01 | 42.59989 | 9.47875 | 2563 ft | 192 kts | 359° |
| 2026-04-24 16:01 | 42.61416 | 9.47867 | 3067 ft | 216 kts | 1° |
| 2026-04-24 16:02 | 42.62946 | 9.48141 | 3838 ft | 227 kts | 15° |
| 2026-04-24 16:02 | 42.64506 | 9.48900 | 4513 ft | 249 kts | 21° |
| 2026-04-24 16:02 | 42.66193 | 9.49785 | 5222 ft | 267 kts | 21° |
| 2026-04-24 16:02 | 42.67943 | 9.50708 | 6235 ft | 272 kts | 20° |
| 2026-04-24 16:03 | 42.69803 | 9.51212 | 7224 ft | 278 kts | 358° |
| 2026-04-24 16:03 | 42.71665 | 9.50521 | 8193 ft | 283 kts | 330° |
| 2026-04-24 16:03 | 42.73105 | 9.48699 | 9154 ft | 288 kts | 303° |
| 2026-04-24 16:03 | 42.73978 | 9.46228 | 10124 ft | 292 kts | 294° |
| 2026-04-24 16:04 | 42.74804 | 9.43632 | 10758 ft | 311 kts | 294° |
| 2026-04-24 16:04 | 42.75690 | 9.40856 | 11348 ft | 326 kts | 294° |
| 2026-04-24 16:04 | 42.76601 | 9.37998 | 12195 ft | 332 kts | 294° |
| 2026-04-24 16:04 | 42.77526 | 9.35097 | 13054 ft | 336 kts | 294° |
| 2026-04-24 16:05 | 42.79415 | 9.29177 | 14678 ft | 345 kts | 294° |
| 2026-04-24 16:05 | 42.80381 | 9.26159 | 15452 ft | 350 kts | 294° |
| 2026-04-24 16:06 | 42.82355 | 9.20012 | 16948 ft | 358 kts | 294° |
| 2026-04-24 16:06 | 42.83358 | 9.16887 | 17668 ft | 362 kts | 294° |
| 2026-04-24 16:06 | 42.85389 | 9.10519 | 19053 ft | 370 kts | 294° |
| 2026-04-24 16:07 | 42.86418 | 9.07286 | 19719 ft | 374 kts | 294° |
| 2026-04-24 16:07 | 42.87457 | 9.04010 | 20369 ft | 379 kts | 294° |
| 2026-04-24 16:07 | 42.89566 | 8.97345 | 21643 ft | 387 kts | 294° |
| 2026-04-24 16:08 | 42.90623 | 8.94006 | 22240 ft | 391 kts | 294° |
| 2026-04-24 16:08 | 42.92795 | 8.87140 | 23404 ft | 398 kts | 294° |
| 2026-04-24 16:09 | 42.94991 | 8.80123 | 24097 ft | 404 kts | 292° |
| 2026-04-24 16:09 | 42.95712 | 8.76470 | 24136 ft | 389 kts | 282° |
| 2026-04-24 16:09 | 42.96213 | 8.72924 | 24136 ft | 373 kts | 282° |
| 2026-04-24 16:09 | 42.96703 | 8.69473 | 24137 ft | 369 kts | 282° |
| 2026-04-24 16:10 | 42.98177 | 8.59202 | 24137 ft | 367 kts | 282° |
| 2026-04-24 16:11 | 42.99157 | 8.52359 | 24137 ft | 367 kts | 282° |
| 2026-04-24 16:11 | 42.99647 | 8.48942 | 24137 ft | 367 kts | 282° |
| 2026-04-24 16:11 | 43.00134 | 8.45524 | 24138 ft | 367 kts | 282° |
| 2026-04-24 16:12 | 43.01132 | 8.38687 | 24136 ft | 366 kts | 286° |
| 2026-04-24 16:12 | 43.02002 | 8.35429 | 24135 ft | 365 kts | 297° |
| 2026-04-24 16:12 | 43.04343 | 8.29401 | 24135 ft | 364 kts | 299° |
| 2026-04-24 16:13 | 43.05534 | 8.26347 | 24134 ft | 364 kts | 299° |
| 2026-04-24 16:13 | 43.07907 | 8.20235 | 24131 ft | 364 kts | 299° |
| 2026-04-24 16:14 | 43.10276 | 8.14116 | 24129 ft | 364 kts | 299° |
| 2026-04-24 16:14 | 43.11460 | 8.11054 | 24126 ft | 364 kts | 299° |
| 2026-04-24 16:14 | 43.13819 | 8.04936 | 24122 ft | 363 kts | 299° |
| 2026-04-24 16:15 | 43.14603 | 8.02908 | 24120 ft | 363 kts | 299° |
| 2026-04-24 16:15 | 43.17352 | 7.95755 | 24116 ft | 363 kts | 299° |
| 2026-04-24 16:16 | 43.19701 | 7.89632 | 24114 ft | 363 kts | 299° |
| 2026-04-24 16:16 | 43.20878 | 7.86569 | 24113 ft | 363 kts | 299° |
| 2026-04-24 16:17 | 43.24393 | 7.77375 | 24112 ft | 363 kts | 299° |
| 2026-04-24 16:17 | 43.26738 | 7.71238 | 24111 ft | 363 kts | 299° |
| 2026-04-24 16:18 | 43.29048 | 7.65173 | 24116 ft | 364 kts | 298° |
| 2026-04-24 16:18 | 43.31342 | 7.58984 | 24119 ft | 364 kts | 297° |
| 2026-04-24 16:18 | 43.32419 | 7.55836 | 24120 ft | 364 kts | 296° |
| 2026-04-24 16:19 | 43.34486 | 7.49546 | 24121 ft | 364 kts | 295° |
| 2026-04-24 16:19 | 43.35527 | 7.46382 | 24119 ft | 363 kts | 295° |
| 2026-04-24 16:20 | 43.37713 | 7.39851 | 24120 ft | 389 kts | 296° |
| 2026-04-24 16:20 | 43.40000 | 7.33044 | 24110 ft | 393 kts | 296° |
| 2026-04-24 16:20 | 43.41146 | 7.29629 | 24109 ft | 393 kts | 296° |
| 2026-04-24 16:21 | 43.43432 | 7.22788 | 24109 ft | 394 kts | 295° |
| 2026-04-24 16:21 | 43.44580 | 7.19346 | 24110 ft | 398 kts | 295° |
| 2026-04-24 16:21 | 43.45719 | 7.15924 | 24104 ft | 400 kts | 295° |
| 2026-04-24 16:22 | 43.46897 | 7.12451 | 24103 ft | 400 kts | 298° |
| 2026-04-24 16:22 | 43.50423 | 7.06642 | 24091 ft | 397 kts | 323° |
| 2026-04-24 16:22 | 43.52585 | 7.04279 | 24090 ft | 397 kts | 323° |
| 2026-04-24 16:23 | 43.54745 | 7.01910 | 24089 ft | 397 kts | 323° |
| 2026-04-24 16:23 | 43.56905 | 6.99535 | 24096 ft | 397 kts | 322° |
| 2026-04-24 16:23 | 43.59062 | 6.97155 | 24090 ft | 397 kts | 322° |
| 2026-04-24 16:24 | 43.63385 | 6.92385 | 24096 ft | 398 kts | 322° |
| 2026-04-24 16:24 | 43.65544 | 6.89999 | 24092 ft | 398 kts | 322° |
| 2026-04-24 16:24 | 43.67702 | 6.87609 | 24090 ft | 398 kts | 322° |
| 2026-04-24 16:24 | 43.69858 | 6.85219 | 24093 ft | 398 kts | 322° |
| 2026-04-24 16:25 | 43.72016 | 6.82821 | 24092 ft | 398 kts | 322° |
| 2026-04-24 16:25 | 43.74176 | 6.80418 | 24092 ft | 398 kts | 322° |
| 2026-04-24 16:25 | 43.76338 | 6.78021 | 24088 ft | 399 kts | 322° |
| 2026-04-24 16:26 | 43.80658 | 6.73225 | 24118 ft | 398 kts | 322° |
| 2026-04-24 16:26 | 43.82816 | 6.70820 | 24112 ft | 399 kts | 322° |
| 2026-04-24 16:26 | 43.87010 | 6.65801 | 24106 ft | 400 kts | 312° |
| 2026-04-24 16:27 | 43.88678 | 6.62714 | 24104 ft | 400 kts | 306° |
| 2026-04-24 16:27 | 43.90290 | 6.59562 | 24104 ft | 401 kts | 306° |
| 2026-04-24 16:27 | 43.91905 | 6.56410 | 24097 ft | 401 kts | 306° |
| 2026-04-24 16:27 | 43.93516 | 6.53265 | 24094 ft | 400 kts | 306° |
| 2026-04-24 16:28 | 43.95131 | 6.50115 | 24095 ft | 400 kts | 306° |
| 2026-04-24 16:28 | 43.96740 | 6.46967 | 24091 ft | 400 kts | 306° |
| 2026-04-24 16:28 | 43.99963 | 6.40664 | 24089 ft | 400 kts | 306° |
| 2026-04-24 16:29 | 44.01572 | 6.37510 | 24081 ft | 400 kts | 306° |
| 2026-04-24 16:29 | 44.03179 | 6.34348 | 24083 ft | 401 kts | 306° |
| 2026-04-24 16:29 | 44.06390 | 6.28016 | 24085 ft | 401 kts | 306° |
| 2026-04-24 16:30 | 44.09584 | 6.21723 | 24093 ft | 401 kts | 306° |
| 2026-04-24 16:30 | 44.11193 | 6.18554 | 24092 ft | 400 kts | 306° |
| 2026-04-24 16:30 | 44.12796 | 6.15389 | 24091 ft | 400 kts | 306° |
| 2026-04-24 16:31 | 44.14397 | 6.12218 | 24095 ft | 400 kts | 306° |
| 2026-04-24 16:31 | 44.15995 | 6.09036 | 24093 ft | 401 kts | 305° |
| 2026-04-24 16:31 | 44.17558 | 6.05821 | 24094 ft | 401 kts | 304° |
| 2026-04-24 16:31 | 44.19093 | 6.02581 | 24094 ft | 401 kts | 304° |
| 2026-04-24 16:32 | 44.20121 | 6.00383 | 24098 ft | 401 kts | 304° |
| 2026-04-24 16:32 | 44.22136 | 5.96067 | 24093 ft | 401 kts | 304° |
| 2026-04-24 16:32 | 44.23662 | 5.92809 | 24095 ft | 401 kts | 304° |
| 2026-04-24 16:32 | 44.25192 | 5.89558 | 24101 ft | 401 kts | 304° |
| 2026-04-24 16:33 | 44.26727 | 5.86307 | 24101 ft | 401 kts | 304° |
| 2026-04-24 16:33 | 44.28265 | 5.83059 | 24105 ft | 401 kts | 304° |
| 2026-04-24 16:33 | 44.29803 | 5.79810 | 24107 ft | 401 kts | 304° |
| 2026-04-24 16:33 | 44.31341 | 5.76556 | 24106 ft | 401 kts | 304° |
| 2026-04-24 16:34 | 44.32873 | 5.73300 | 24106 ft | 401 kts | 304° |
| 2026-04-24 16:34 | 44.34405 | 5.70042 | 24105 ft | 401 kts | 304° |
| 2026-04-24 16:34 | 44.36004 | 5.66853 | 24100 ft | 400 kts | 311° |
| 2026-04-24 16:34 | 44.38041 | 5.64229 | 24098 ft | 398 kts | 326° |
| 2026-04-24 16:35 | 44.40476 | 5.62415 | 24096 ft | 396 kts | 341° |
| 2026-04-24 16:35 | 44.43142 | 5.61507 | 24094 ft | 395 kts | 354° |
| 2026-04-24 16:35 | 44.45869 | 5.61068 | 24094 ft | 394 kts | 354° |
| 2026-04-24 16:35 | 44.48584 | 5.60633 | 24120 ft | 393 kts | 354° |
| 2026-04-24 16:36 | 44.51307 | 5.60192 | 24111 ft | 394 kts | 354° |
| 2026-04-24 16:36 | 44.54031 | 5.59747 | 24105 ft | 395 kts | 354° |
| 2026-04-24 16:36 | 44.56761 | 5.59301 | 24100 ft | 395 kts | 354° |
| 2026-04-24 16:36 | 44.59467 | 5.58856 | 23854 ft | 388 kts | 354° |
| 2026-04-24 16:37 | 44.62135 | 5.58417 | 23378 ft | 385 kts | 354° |
| 2026-04-24 16:37 | 44.64789 | 5.57980 | 22892 ft | 382 kts | 354° |
| 2026-04-24 16:37 | 44.66532 | 5.57692 | 22575 ft | 380 kts | 354° |
| 2026-04-24 16:37 | 44.70029 | 5.57109 | 21949 ft | 376 kts | 354° |
| 2026-04-24 16:38 | 44.72615 | 5.56672 | 21460 ft | 373 kts | 354° |
| 2026-04-24 16:38 | 44.75188 | 5.56243 | 20963 ft | 371 kts | 354° |
| 2026-04-24 16:38 | 44.77741 | 5.55821 | 20475 ft | 368 kts | 354° |
| 2026-04-24 16:38 | 44.80280 | 5.55403 | 20009 ft | 366 kts | 354° |
| 2026-04-24 16:39 | 44.82799 | 5.54989 | 19545 ft | 363 kts | 354° |
| 2026-04-24 16:39 | 44.85305 | 5.54574 | 19071 ft | 361 kts | 354° |
| 2026-04-24 16:39 | 44.87791 | 5.54160 | 18615 ft | 359 kts | 354° |
| 2026-04-24 16:39 | 44.90257 | 5.53748 | 18166 ft | 356 kts | 353° |
| 2026-04-24 16:40 | 44.92704 | 5.53338 | 17833 ft | 350 kts | 353° |
| 2026-04-24 16:40 | 44.95076 | 5.52940 | 17707 ft | 338 kts | 353° |
| 2026-04-24 16:40 | 44.97380 | 5.52555 | 17499 ft | 330 kts | 353° |
| 2026-04-24 16:40 | 44.98886 | 5.52303 | 17309 ft | 327 kts | 353° |
| 2026-04-24 16:41 | 45.01142 | 5.52100 | 16948 ft | 324 kts | 0° |
| 2026-04-24 16:41 | 45.03392 | 5.52087 | 16573 ft | 323 kts | 0° |
| 2026-04-24 16:41 | 45.05633 | 5.52076 | 16218 ft | 321 kts | 0° |
| 2026-04-24 16:41 | 45.08575 | 5.52060 | 15760 ft | 318 kts | 0° |
| 2026-04-24 16:42 | 45.10783 | 5.52039 | 15372 ft | 317 kts | 360° |
| 2026-04-24 16:42 | 45.12282 | 5.52021 | 15031 ft | 320 kts | 360° |
| 2026-04-24 16:42 | 45.14487 | 5.51997 | 14537 ft | 323 kts | 360° |
| 2026-04-24 16:42 | 45.16733 | 5.51975 | 14047 ft | 324 kts | 360° |
| 2026-04-24 16:43 | 45.18996 | 5.51950 | 13552 ft | 325 kts | 360° |
| 2026-04-24 16:43 | 45.21261 | 5.51929 | 13051 ft | 326 kts | 360° |
| 2026-04-24 16:43 | 45.23532 | 5.51908 | 12544 ft | 325 kts | 360° |
| 2026-04-24 16:43 | 45.25774 | 5.51884 | 12063 ft | 319 kts | 360° |
| 2026-04-24 16:44 | 45.27980 | 5.51758 | 11582 ft | 317 kts | 352° |
| 2026-04-24 16:44 | 45.30128 | 5.51059 | 11082 ft | 316 kts | 345° |
| 2026-04-24 16:44 | 45.32232 | 5.50259 | 10635 ft | 309 kts | 345° |
| 2026-04-24 16:44 | 45.34206 | 5.49170 | 10251 ft | 301 kts | 330° |
| 2026-04-24 16:45 | 45.35838 | 5.47391 | 9873 ft | 294 kts | 314° |
| 2026-04-24 16:45 | 45.37044 | 5.45058 | 9474 ft | 293 kts | 297° |
| 2026-04-24 16:45 | 45.37837 | 5.42402 | 9069 ft | 291 kts | 291° |
| 2026-04-24 16:45 | 45.38580 | 5.39741 | 8686 ft | 289 kts | 291° |
| 2026-04-24 16:46 | 45.39319 | 5.37101 | 8298 ft | 286 kts | 291° |
| 2026-04-24 16:46 | 45.40057 | 5.34475 | 7901 ft | 285 kts | 291° |
| 2026-04-24 16:46 | 45.40792 | 5.31860 | 7492 ft | 284 kts | 291° |
| 2026-04-24 16:46 | 45.41520 | 5.29271 | 7109 ft | 279 kts | 291° |
| 2026-04-24 16:47 | 45.42231 | 5.26744 | 6718 ft | 271 kts | 291° |
| 2026-04-24 16:47 | 45.42920 | 5.24285 | 6327 ft | 265 kts | 291° |
| 2026-04-24 16:47 | 45.43593 | 5.21884 | 5926 ft | 259 kts | 291° |
| 2026-04-24 16:47 | 45.44251 | 5.19531 | 5530 ft | 252 kts | 291° |
| 2026-04-24 16:48 | 45.44894 | 5.17226 | 5139 ft | 249 kts | 291° |
| 2026-04-24 16:48 | 45.45583 | 5.14970 | 4733 ft | 249 kts | 301° |
| 2026-04-24 16:48 | 45.46756 | 5.13177 | 4334 ft | 250 kts | 326° |
| 2026-04-24 16:48 | 45.48351 | 5.12258 | 4032 ft | 246 kts | 351° |
| 2026-04-24 16:49 | 45.49999 | 5.12037 | 4003 ft | 230 kts | 355° |
| 2026-04-24 16:49 | 45.51539 | 5.11851 | 4005 ft | 214 kts | 355° |
| 2026-04-24 16:49 | 45.52995 | 5.11673 | 4010 ft | 204 kts | 355° |
| 2026-04-24 16:49 | 45.54380 | 5.11505 | 3978 ft | 197 kts | 355° |
| 2026-04-24 16:50 | 45.55266 | 5.11398 | 3914 ft | 190 kts | 355° |
| 2026-04-24 16:50 | 45.57024 | 5.11183 | 3573 ft | 189 kts | 355° |
| 2026-04-24 16:50 | 45.58326 | 5.11027 | 3326 ft | 186 kts | 355° |
| 2026-04-24 16:50 | 45.59600 | 5.10873 | 3084 ft | 181 kts | 355° |
| 2026-04-24 16:51 | 45.60836 | 5.10721 | 2845 ft | 175 kts | 355° |
| 2026-04-24 16:51 | 45.62022 | 5.10578 | 2620 ft | 166 kts | 355° |
| 2026-04-24 16:51 | 45.63137 | 5.10444 | 2402 ft | 155 kts | 355° |
| 2026-04-24 16:51 | 45.64175 | 5.10318 | 2200 ft | 149 kts | 355° |
| 2026-04-24 16:52 | 45.65180 | 5.10197 | 2010 ft | 141 kts | 355° |
| 2026-04-24 16:52 | 45.66146 | 5.10080 | 1828 ft | 139 kts | 355° |
| 2026-04-24 16:52 | 45.67125 | 5.09963 | 1666 ft | 148 kts | 355° |
| 2026-04-24 16:52 | 45.68127 | 5.09825 | 1460 ft | 144 kts | 354° |
| 2026-04-24 16:53 | 45.69134 | 5.09704 | 1251 ft | 146 kts | 356° |
| 2026-04-24 16:53 | 45.70142 | 5.09605 | 1053 ft | 144 kts | 355° |
| 2026-04-24 16:53 | 45.71128 | 5.09477 | 867 ft | 140 kts | 355° |
| 2026-04-24 16:53 | 45.72023 | 5.09371 | 818 ft | 113 kts | 355° |
| 2026-04-24 16:54 | 45.72628 | 5.09292 | 808 ft | 54 kts | 355° |
| 2026-04-24 16:54 | 45.72837 | 5.09202 | 803 ft | 27 kts | 322° |
| 2026-04-24 16:54 | 45.72951 | 5.09086 | 797 ft | 17 kts | 324° |
| 2026-04-24 16:54 | 45.72964 | 5.08912 | 792 ft | 20 kts | 265° |
| 2026-04-24 16:55 | 45.72955 | 5.08708 | 792 ft | 21 kts | 267° |
| 2026-04-24 16:55 | 45.72946 | 5.08519 | 791 ft | 19 kts | 265° |
| 2026-04-24 16:55 | 45.72893 | 5.08358 | 790 ft | 19 kts | 203° |
| 2026-04-24 16:55 | 45.72763 | 5.08359 | 791 ft | 19 kts | 177° |
| 2026-04-24 16:56 | 45.72629 | 5.08373 | 792 ft | 19 kts | 175° |
| 2026-04-24 16:56 | 45.72502 | 5.08389 | 796 ft | 18 kts | 174° |
| 2026-04-24 16:56 | 45.72374 | 5.08408 | 798 ft | 18 kts | 172° |
| 2026-04-24 16:56 | 45.72247 | 5.08426 | 800 ft | 18 kts | 175° |
| 2026-04-24 16:57 | 45.72121 | 5.08440 | 803 ft | 18 kts | 176° |
| 2026-04-24 16:57 | 45.71991 | 5.08452 | 802 ft | 20 kts | 176° |
| 2026-04-24 16:57 | 45.71851 | 5.08466 | 802 ft | 21 kts | 175° |
| 2026-04-24 16:57 | 45.71704 | 5.08491 | 802 ft | 22 kts | 173° |
| 2026-04-24 16:58 | 45.71550 | 5.08512 | 803 ft | 23 kts | 175° |
| 2026-04-24 16:58 | 45.71428 | 5.08495 | 807 ft | 14 kts | 227° |
| 2026-04-24 16:58 | 45.71407 | 5.08351 | 804 ft | 9 kts | 266° |
| 2026-04-24 16:58 | 45.71444 | 5.08333 | 803 ft | 7 kts | 3° |
| 2026-04-24 16:59 | 45.71485 | 5.08347 | 802 ft | 3 kts | 15° |
| 2026-04-24 16:59 | 45.71490 | 5.08349 | 802 ft | 0 kts | 14° |